createdAt,value
2018-06-10T00:00:58.012Z,19.00
2018-06-10T00:03:25.889Z,19.00
2018-06-10T00:05:52.876Z,19.00
2018-06-10T00:08:20.840Z,19.10
2018-06-10T00:10:47.846Z,18.90
2018-06-10T00:13:15.686Z,18.90
2018-06-10T00:15:42.737Z,18.80
2018-06-10T00:18:09.730Z,18.90
2018-06-10T00:20:36.732Z,19.10
2018-06-10T00:23:03.765Z,19.10
2018-06-10T00:25:30.758Z,19.10
2018-06-10T00:27:57.770Z,19.10
2018-06-10T00:32:51.876Z,19.00
2018-06-10T00:35:22.877Z,19.20
2018-06-10T00:37:49.916Z,19.20
2018-06-10T00:40:17.290Z,19.10
2018-06-10T00:42:44.280Z,19.30
2018-06-10T00:45:11.305Z,19.30
2018-06-10T00:47:38.283Z,19.30
2018-06-10T00:50:05.291Z,19.30
2018-06-10T00:52:32.330Z,19.20
2018-06-10T00:57:26.404Z,19.20
2018-06-10T00:59:53.437Z,19.30
2018-06-10T01:02:20.436Z,19.30
2018-06-10T01:04:47.423Z,19.20
2018-06-10T01:07:15.273Z,19.30
2018-06-10T01:09:42.280Z,19.30
2018-06-10T01:14:47.794Z,19.30
2018-06-10T01:17:14.781Z,19.30
2018-06-10T01:19:41.770Z,19.20
2018-06-10T01:22:09.843Z,19.30
2018-06-10T01:24:36.832Z,19.30
2018-06-10T01:27:03.890Z,19.40
2018-06-10T01:29:30.921Z,19.50
2018-06-10T01:34:25.008Z,19.50
2018-06-10T01:36:52.049Z,19.40
2018-06-10T01:41:46.126Z,19.40
2018-06-10T01:44:13.160Z,19.50
2018-06-10T01:46:40.153Z,19.50
2018-06-10T01:49:07.144Z,19.50
2018-06-10T01:51:34.182Z,19.40
2018-06-10T01:54:01.192Z,19.40
2018-06-10T01:56:28.187Z,19.50
2018-06-10T01:58:55.219Z,19.50
2018-06-10T02:01:22.298Z,19.60
2018-06-10T02:03:49.191Z,19.50
2018-06-10T02:06:18.044Z,19.50
2018-06-10T02:08:45.038Z,19.50
2018-06-10T02:11:12.022Z,19.60
2018-06-10T02:13:39.056Z,19.50
2018-06-10T02:16:06.058Z,19.60
2018-06-10T02:18:33.050Z,19.50
2018-06-10T02:21:00.099Z,19.50
2018-06-10T02:23:27.091Z,19.40
2018-06-10T02:25:54.089Z,19.40
2018-06-10T02:28:21.122Z,19.30
2018-06-10T02:33:26.615Z,19.20
2018-06-10T02:38:20.697Z,19.40
2018-06-10T02:40:47.739Z,19.40
2018-06-10T02:45:41.831Z,19.30
2018-06-10T02:48:09.197Z,19.40
2018-06-10T02:50:36.183Z,19.40
2018-06-10T02:53:03.168Z,19.30
2018-06-10T02:55:30.205Z,19.20
2018-06-10T02:57:57.198Z,19.20
2018-06-10T03:00:24.247Z,19.20
2018-06-10T03:02:51.283Z,19.20
2018-06-10T03:05:18.287Z,19.30
2018-06-10T03:07:46.278Z,19.30
2018-06-10T03:10:13.982Z,19.10
2018-06-10T03:12:40.979Z,19.10
2018-06-10T03:17:35.109Z,19.20
2018-06-10T03:20:02.124Z,19.10
2018-06-10T03:24:56.219Z,18.90
2018-06-10T03:27:23.209Z,18.90
2018-06-10T03:29:50.198Z,18.90
2018-06-10T03:32:17.245Z,18.80
2018-06-10T03:37:12.179Z,18.70
2018-06-10T03:39:39.213Z,18.80
2018-06-10T03:42:06.211Z,18.80
2018-06-10T03:44:33.215Z,18.90
2018-06-10T03:47:00.239Z,18.90
2018-06-10T03:49:27.235Z,18.90
2018-06-10T03:54:37.218Z,19.00
2018-06-10T03:57:04.218Z,19.00
2018-06-10T03:59:31.211Z,19.00
2018-06-10T04:01:58.544Z,19.00
2018-06-10T04:04:25.537Z,19.00
2018-06-10T04:09:19.640Z,18.90
2018-06-10T04:11:46.637Z,18.80
2018-06-10T04:14:13.638Z,18.90
2018-06-10T04:16:40.678Z,18.90
2018-06-10T04:19:07.675Z,18.90
2018-06-10T04:21:34.680Z,18.90
2018-06-10T04:24:01.722Z,18.90
2018-06-10T04:26:28.729Z,18.90
2018-06-10T04:28:55.764Z,18.90
2018-06-10T04:31:26.188Z,19.00
2018-06-10T04:33:53.196Z,19.10
2018-06-10T04:36:20.206Z,19.20
2018-06-10T04:38:47.233Z,19.30
2018-06-10T04:41:14.220Z,19.30
2018-06-10T04:43:41.210Z,19.10
2018-06-10T04:46:09.167Z,19.20
2018-06-10T04:48:36.184Z,19.20
2018-06-10T04:51:03.207Z,19.30
2018-06-10T04:55:57.336Z,19.10
2018-06-10T04:58:24.349Z,19.30
2018-06-10T05:03:19.911Z,19.00
2018-06-10T05:08:26.367Z,20.00
2018-06-10T05:10:53.372Z,19.80
2018-06-10T05:13:20.368Z,19.90
2018-06-10T05:15:47.405Z,20.00
2018-06-10T05:18:14.415Z,19.90
2018-06-10T05:20:41.410Z,19.40
2018-06-10T05:23:08.449Z,19.60
2018-06-10T05:25:35.441Z,19.60
2018-06-10T05:28:02.444Z,19.80
2018-06-10T05:30:30.316Z,20.00
2018-06-10T05:32:57.320Z,19.90
2018-06-10T05:37:52.199Z,20.10
2018-06-10T05:40:19.263Z,20.30
2018-06-10T05:42:46.268Z,20.30
2018-06-10T05:45:13.616Z,20.40
2018-06-10T05:47:40.613Z,20.30
2018-06-10T05:50:07.615Z,20.30
2018-06-10T05:52:34.636Z,20.20
2018-06-10T05:55:01.655Z,20.10
2018-06-10T05:59:55.781Z,21.00
2018-06-10T06:02:22.779Z,21.60
2018-06-10T06:04:49.800Z,21.60
2018-06-10T06:07:16.852Z,21.30
2018-06-10T06:09:43.858Z,21.50
2018-06-10T06:12:10.862Z,21.60
2018-06-10T06:14:37.913Z,21.70
2018-06-10T06:22:12.565Z,22.20
2018-06-10T06:24:40.531Z,22.50
2018-06-10T06:27:08.255Z,22.80
2018-06-10T06:29:35.337Z,23.00
2018-06-10T06:32:02.418Z,23.10
2018-06-10T06:34:29.452Z,23.30
2018-06-10T06:36:56.482Z,23.20
2018-06-10T06:39:23.501Z,23.30
2018-06-10T06:41:50.499Z,22.60
2018-06-10T06:44:17.551Z,23.10
2018-06-10T06:46:44.565Z,23.30
2018-06-10T06:49:11.569Z,23.30
2018-06-10T06:51:38.590Z,23.20
2018-06-10T06:54:05.592Z,23.40
2018-06-10T06:56:32.598Z,23.50
2018-06-10T06:58:59.646Z,23.70
2018-06-10T07:01:26.662Z,23.20
2018-06-10T07:03:53.665Z,22.80
2018-06-10T07:06:20.864Z,23.40
2018-06-10T07:08:47.875Z,23.80
2018-06-10T07:11:15.605Z,23.40
2018-06-10T07:13:42.787Z,24.00
2018-06-10T07:16:09.820Z,24.20
2018-06-10T07:18:37.617Z,24.40
2018-06-10T07:21:04.662Z,23.60
2018-06-10T07:23:31.690Z,22.90
2018-06-10T07:25:58.698Z,23.40
2018-06-10T07:28:25.756Z,23.70
2018-06-10T07:30:53.194Z,24.00
2018-06-10T07:33:20.200Z,24.30
2018-06-10T07:35:47.237Z,24.40
2018-06-10T07:40:52.779Z,24.70
2018-06-10T07:43:19.787Z,25.20
2018-06-10T07:45:46.797Z,25.40
2018-06-10T07:48:13.908Z,25.30
2018-06-10T07:50:40.867Z,25.70
2018-06-10T07:53:07.855Z,25.10
2018-06-10T07:55:34.878Z,24.90
2018-06-10T07:58:01.896Z,25.00
2018-06-10T08:00:28.904Z,25.50
2018-06-10T08:02:55.974Z,25.80
2018-06-10T08:05:23.044Z,25.90
2018-06-10T08:07:50.002Z,26.20
2018-06-10T08:10:17.047Z,26.30
2018-06-10T08:12:44.050Z,26.50
2018-06-10T08:15:11.061Z,26.50
2018-06-10T08:17:38.150Z,26.70
2018-06-10T08:20:06.110Z,27.10
2018-06-10T08:22:33.143Z,27.10
2018-06-10T08:25:00.231Z,26.70
2018-06-10T08:27:27.319Z,27.10
2018-06-10T08:29:54.404Z,27.10
2018-06-10T08:32:21.485Z,27.20
2018-06-10T08:34:48.530Z,27.40
2018-06-10T08:37:15.557Z,27.70
2018-06-10T08:42:09.681Z,27.40
2018-06-10T08:44:36.736Z,27.10
2018-06-10T08:47:03.778Z,27.20
2018-06-10T08:49:30.803Z,27.50
2018-06-10T08:51:57.820Z,27.10
2018-06-10T08:54:24.870Z,27.40
2018-06-10T08:56:51.876Z,27.80
2018-06-10T08:59:18.904Z,27.70
2018-06-10T09:01:45.948Z,27.90
2018-06-10T09:06:51.479Z,26.90
2018-06-10T09:11:47.920Z,27.30
2018-06-10T09:19:09.200Z,28.30
2018-06-10T09:21:37.887Z,28.60
2018-06-10T09:24:04.880Z,27.80
2018-06-10T09:26:31.892Z,28.20
2018-06-10T09:28:58.948Z,27.70
2018-06-10T09:31:25.972Z,27.70
2018-06-10T09:33:52.991Z,28.40
2018-06-10T09:41:21.825Z,28.30
2018-06-10T09:43:48.862Z,27.90
2018-06-10T09:46:16.645Z,28.50
2018-06-10T09:51:11.452Z,28.60
2018-06-10T09:53:38.693Z,28.80
2018-06-10T09:56:05.648Z,29.20
2018-06-10T09:58:32.723Z,28.10
2018-06-10T10:00:59.715Z,28.00
2018-06-10T10:03:26.720Z,28.20
2018-06-10T10:05:53.773Z,28.60
2018-06-10T10:08:20.792Z,29.20
2018-06-10T10:10:47.826Z,28.90
2018-06-10T10:13:14.889Z,29.40
2018-06-10T10:18:26.936Z,28.30
2018-06-10T10:20:55.899Z,28.90
2018-06-10T10:23:22.934Z,29.10
2018-06-10T10:25:49.980Z,28.90
2018-06-10T10:28:17.005Z,28.60
2018-06-10T10:30:44.021Z,28.60
2018-06-10T10:35:38.190Z,29.00
2018-06-10T10:38:05.205Z,29.70
2018-06-10T10:40:32.277Z,29.60
2018-06-10T10:42:59.303Z,29.80
2018-06-10T10:45:26.328Z,30.00
2018-06-10T10:47:53.490Z,30.00
2018-06-10T10:50:20.458Z,29.50
2018-06-10T10:52:47.472Z,29.20
2018-06-10T10:55:15.575Z,28.90
2018-06-10T10:57:42.608Z,29.30
2018-06-10T11:00:09.612Z,29.60
2018-06-10T11:02:36.674Z,30.20
2018-06-10T11:05:03.693Z,30.10
2018-06-10T11:07:30.677Z,29.70
2018-06-10T11:09:57.701Z,30.00
2018-06-10T11:12:24.714Z,29.90
2018-06-10T11:14:51.761Z,29.60
2018-06-10T11:17:18.757Z,29.50
2018-06-10T11:22:27.220Z,29.60
2018-06-10T11:24:54.210Z,29.50
2018-06-10T11:27:21.257Z,29.00
2018-06-10T11:29:48.252Z,29.00
2018-06-10T11:32:15.251Z,29.20
2018-06-10T11:34:42.250Z,29.30
2018-06-10T11:37:09.801Z,30.00
2018-06-10T11:39:36.815Z,30.10
2018-06-10T11:42:03.814Z,29.00
2018-06-10T11:44:30.860Z,29.70
2018-06-10T11:46:57.863Z,30.10
2018-06-10T11:49:24.864Z,30.50
2018-06-10T11:51:51.893Z,30.70
2018-06-10T11:56:46.033Z,30.40
2018-06-10T11:59:13.078Z,29.60
2018-06-10T12:01:40.132Z,29.70
2018-06-10T12:04:07.171Z,29.80
2018-06-10T12:06:34.200Z,30.20
2018-06-10T12:09:01.206Z,30.50
2018-06-10T12:11:28.212Z,29.40
2018-06-10T12:13:55.285Z,29.70
2018-06-10T12:16:22.291Z,29.10
2018-06-10T12:18:49.294Z,29.00
2018-06-10T12:23:44.305Z,29.20
2018-06-10T12:26:12.167Z,29.20
2018-06-10T12:28:39.222Z,29.20
2018-06-10T12:31:06.230Z,29.10
2018-06-10T12:33:34.057Z,29.10
2018-06-10T12:36:01.925Z,28.60
2018-06-10T12:41:08.318Z,28.40
2018-06-10T12:43:35.321Z,28.90
2018-06-10T12:46:02.325Z,29.20
2018-06-10T12:48:29.392Z,29.00
2018-06-10T12:50:56.395Z,29.00
2018-06-10T12:53:23.434Z,29.00
2018-06-10T12:55:50.463Z,29.10
2018-06-10T12:58:17.466Z,29.00
2018-06-10T13:00:44.481Z,28.50
2018-06-10T13:03:11.543Z,28.60
2018-06-10T13:05:38.570Z,28.70
2018-06-10T13:08:07.833Z,29.00
2018-06-10T13:10:34.877Z,29.10
2018-06-10T13:13:01.868Z,28.40
2018-06-10T13:15:29.701Z,28.40
2018-06-10T13:17:56.745Z,28.30
2018-06-10T13:20:23.753Z,28.30
2018-06-10T13:22:50.751Z,28.20
2018-06-10T13:25:17.793Z,27.90
2018-06-10T13:27:44.812Z,27.80
2018-06-10T13:32:38.926Z,27.90
2018-06-10T13:35:06.818Z,27.90
2018-06-10T13:37:33.814Z,27.70
2018-06-10T13:40:00.873Z,27.50
2018-06-10T13:42:27.880Z,27.40
2018-06-10T13:44:54.879Z,27.40
2018-06-10T13:47:21.922Z,27.60
2018-06-10T13:49:48.927Z,27.60
2018-06-10T13:52:15.927Z,27.30
2018-06-10T13:54:42.960Z,27.30
2018-06-10T13:57:10.923Z,27.10
2018-06-10T13:59:37.942Z,27.40
2018-06-10T14:02:04.982Z,27.60
2018-06-10T14:07:10.532Z,27.30
2018-06-10T14:09:37.533Z,27.40
2018-06-10T14:12:04.535Z,27.40
2018-06-10T14:14:31.563Z,27.20
2018-06-10T14:16:58.566Z,27.20
2018-06-10T14:19:26.416Z,27.40
2018-06-10T14:21:53.456Z,27.60
2018-06-10T14:24:20.505Z,27.90
2018-06-10T14:26:47.500Z,28.10
2018-06-10T14:29:14.527Z,27.50
2018-06-10T14:31:41.578Z,27.50
2018-06-10T14:34:08.621Z,27.30
2018-06-10T14:36:35.668Z,27.10
2018-06-10T14:39:02.666Z,27.10
2018-06-10T14:41:29.676Z,27.10
2018-06-10T14:43:57.536Z,27.20
2018-06-10T14:46:24.535Z,27.20
2018-06-10T14:48:51.533Z,27.30
2018-06-10T14:51:18.603Z,27.30
2018-06-10T14:56:12.701Z,27.30
2018-06-10T14:58:39.746Z,27.40
2018-06-10T15:03:33.840Z,27.40
2018-06-10T15:06:00.949Z,27.60
2018-06-10T15:10:55.935Z,27.80
2018-06-10T15:13:22.976Z,27.60
2018-06-10T15:15:49.987Z,27.70
2018-06-10T15:18:16.997Z,27.70
2018-06-10T15:23:22.510Z,27.80
2018-06-10T15:25:49.579Z,28.00
2018-06-10T15:28:16.574Z,27.90
2018-06-10T15:30:43.583Z,27.90
2018-06-10T15:33:10.612Z,27.80
2018-06-10T15:35:37.622Z,27.70
2018-06-10T15:38:04.621Z,27.60
2018-06-10T15:40:31.665Z,27.70
2018-06-10T15:42:58.662Z,27.90
2018-06-10T15:45:25.659Z,27.70
2018-06-10T15:47:52.751Z,27.80
2018-06-10T15:50:19.727Z,27.90
2018-06-10T15:52:46.730Z,27.90
2018-06-10T15:55:13.783Z,27.80
2018-06-10T15:57:40.783Z,27.60
2018-06-10T16:00:11.821Z,27.70
2018-06-10T16:02:38.856Z,27.80
2018-06-10T16:05:05.859Z,27.50
2018-06-10T16:07:32.860Z,27.20
2018-06-10T16:10:01.111Z,27.40
2018-06-10T16:12:28.104Z,27.20
2018-06-10T16:14:55.099Z,27.20
2018-06-10T16:17:22.161Z,27.30
2018-06-10T16:19:50.121Z,27.40
2018-06-10T16:22:17.134Z,27.40
2018-06-10T16:24:44.164Z,27.30
2018-06-10T16:27:11.187Z,27.40
2018-06-10T16:29:38.193Z,27.40
2018-06-10T16:34:44.670Z,27.40
2018-06-10T16:37:11.698Z,27.40
2018-06-10T16:39:38.705Z,27.40
2018-06-10T16:42:05.732Z,27.50
2018-06-10T16:44:32.767Z,27.60
2018-06-10T16:46:59.780Z,27.60
2018-06-10T16:49:26.788Z,27.60
2018-06-10T16:51:54.972Z,27.40
2018-06-10T16:54:21.977Z,27.10
2018-06-10T16:56:48.983Z,27.20
2018-06-10T17:01:44.079Z,26.80
2018-06-10T17:04:11.061Z,26.70
2018-06-10T17:06:38.104Z,26.70
2018-06-10T17:09:05.113Z,26.90
2018-06-10T17:11:32.116Z,26.90
2018-06-10T17:13:59.197Z,26.80
2018-06-10T17:16:27.007Z,26.70
2018-06-10T17:18:54.845Z,26.60
2018-06-10T17:26:16.077Z,26.70
2018-06-10T17:28:43.122Z,26.70
2018-06-10T17:31:10.967Z,26.70
2018-06-10T17:33:37.966Z,26.90
2018-06-10T17:36:05.001Z,27.10
2018-06-10T17:38:32.005Z,27.10
2018-06-10T17:40:59.013Z,27.10
2018-06-10T17:43:26.065Z,27.10
2018-06-10T17:45:53.075Z,27.00
2018-06-10T17:48:21.029Z,26.80
2018-06-10T17:50:48.073Z,26.70
2018-06-10T17:53:15.111Z,26.60
2018-06-10T17:58:20.687Z,26.30
2018-06-10T18:00:48.687Z,26.40
2018-06-10T18:03:15.688Z,26.30
2018-06-10T18:05:42.744Z,26.30
2018-06-10T18:08:09.762Z,26.30
2018-06-10T18:10:37.583Z,26.30
2018-06-10T18:13:04.622Z,26.30
2018-06-10T18:15:32.616Z,26.20
2018-06-10T18:17:59.634Z,26.10
2018-06-10T18:20:26.658Z,26.10
2018-06-10T18:22:53.648Z,26.00
2018-06-10T18:25:20.683Z,25.90
2018-06-10T18:27:47.716Z,25.90
2018-06-10T18:32:52.967Z,25.80
2018-06-10T18:35:19.973Z,25.80
2018-06-10T18:37:46.968Z,25.70
2018-06-10T18:40:14.086Z,25.80
2018-06-10T18:45:19.227Z,25.90
2018-06-10T18:47:46.244Z,26.00
2018-06-10T18:50:13.231Z,26.20
2018-06-10T18:52:40.259Z,26.20
2018-06-10T18:55:07.310Z,26.30
2018-06-10T18:57:35.154Z,26.20
2018-06-10T19:00:02.417Z,26.30
2018-06-10T19:05:08.104Z,26.10
2018-06-10T19:07:35.096Z,26.10
2018-06-10T19:10:03.077Z,26.00
2018-06-10T19:12:30.124Z,26.00
2018-06-10T19:14:57.124Z,26.00
2018-06-10T19:17:24.926Z,25.90
2018-06-10T19:19:51.973Z,26.00
2018-06-10T19:22:18.958Z,26.00
2018-06-10T19:27:13.973Z,25.90
2018-06-10T19:29:40.980Z,25.90
2018-06-10T19:32:07.973Z,25.90
2018-06-10T19:34:35.900Z,25.90
2018-06-10T19:37:03.853Z,25.90
2018-06-10T19:39:30.898Z,25.80
2018-06-10T19:41:58.870Z,25.40
2018-06-10T19:44:25.870Z,25.30
2018-06-10T19:46:52.870Z,25.10
2018-06-10T19:49:19.926Z,25.10
2018-06-10T19:51:46.926Z,25.20
2018-06-10T19:54:13.935Z,25.20
2018-06-10T19:56:41.001Z,25.20
2018-06-10T19:59:08.006Z,25.20
2018-06-10T20:01:35.096Z,25.10
2018-06-10T20:04:02.163Z,25.10
2018-06-10T20:06:30.054Z,25.10
2018-06-10T20:08:57.059Z,25.00
2018-06-10T20:11:24.089Z,24.90
2018-06-10T20:13:51.094Z,24.80
2018-06-10T20:16:18.099Z,24.80
2018-06-10T20:21:23.628Z,24.60
2018-06-10T20:23:50.680Z,24.70
2018-06-10T20:26:17.675Z,24.60
2018-06-10T20:28:44.669Z,24.80
2018-06-10T20:31:11.701Z,24.80
2018-06-10T20:36:06.613Z,24.70
2018-06-10T20:41:00.740Z,24.60
2018-06-10T20:43:27.743Z,24.60
2018-06-10T20:45:54.773Z,24.60
2018-06-10T20:48:21.779Z,24.50
2018-06-10T20:50:48.758Z,24.50
2018-06-10T20:53:15.804Z,24.50
2018-06-10T20:55:42.800Z,24.40
2018-06-10T20:58:09.809Z,24.40
2018-06-10T21:00:36.867Z,24.40
2018-06-10T21:05:30.970Z,24.10
2018-06-10T21:07:58.005Z,24.20
2018-06-10T21:12:52.101Z,24.10
2018-06-10T21:15:19.151Z,24.10
2018-06-10T21:20:13.247Z,24.10
2018-06-10T21:22:40.297Z,24.10
2018-06-10T21:25:07.331Z,23.90
2018-06-10T21:27:34.372Z,23.80
2018-06-10T21:30:01.848Z,23.70
2018-06-10T21:32:28.853Z,23.70
2018-06-10T21:37:36.498Z,23.60
2018-06-10T21:40:03.515Z,23.80
2018-06-10T21:42:30.524Z,23.80
2018-06-10T21:44:57.579Z,23.70
2018-06-10T21:47:24.586Z,23.50
2018-06-10T21:49:55.269Z,23.20
2018-06-10T21:52:22.149Z,23.20
2018-06-10T21:54:49.141Z,23.20
2018-06-10T21:57:16.147Z,23.20
2018-06-10T21:59:43.197Z,23.10
2018-06-10T22:02:10.195Z,23.10
2018-06-10T22:04:37.185Z,23.00
2018-06-10T22:12:09.516Z,23.00
2018-06-10T22:14:36.528Z,22.90
2018-06-10T22:17:03.549Z,22.90
2018-06-10T22:19:30.609Z,22.70
2018-06-10T22:21:57.617Z,22.60
2018-06-10T22:24:24.616Z,22.40
2018-06-10T22:26:51.662Z,22.40
2018-06-10T22:29:18.705Z,22.50
2018-06-10T22:31:48.651Z,22.60
2018-06-10T22:34:15.690Z,22.40
2018-06-10T22:36:42.714Z,22.30
2018-06-10T22:39:09.718Z,22.10
2018-06-10T22:41:36.785Z,22.00
2018-06-10T22:44:03.790Z,21.90
2018-06-10T22:46:31.740Z,21.90
2018-06-10T22:48:58.792Z,21.80
2018-06-10T22:51:25.802Z,21.70
2018-06-10T22:53:52.811Z,21.70
2018-06-10T22:56:19.851Z,21.60
2018-06-10T22:58:46.847Z,21.50
2018-06-10T23:01:13.902Z,21.50
2018-06-10T23:06:08.009Z,21.40
2018-06-10T23:08:35.010Z,21.40
2018-06-10T23:13:29.960Z,21.60
2018-06-10T23:15:57.020Z,21.60
2018-06-10T23:18:24.055Z,21.60
2018-06-10T23:20:51.069Z,21.70
2018-06-10T23:25:58.612Z,21.80
2018-06-10T23:28:25.612Z,21.90
2018-06-10T23:30:52.618Z,21.90
2018-06-10T23:33:19.664Z,21.90
2018-06-10T23:38:24.822Z,21.90
2018-06-10T23:40:51.823Z,21.80
2018-06-10T23:43:18.822Z,21.80
2018-06-10T23:45:45.872Z,21.70
2018-06-10T23:50:39.976Z,21.80
2018-06-10T23:53:07.484Z,21.70
2018-06-10T23:55:34.517Z,21.70
2018-06-10T23:58:01.520Z,21.50
